Time;durP1;ratioP1;P1;durP2;ratioP2;P2;SDS_P1;SDS_P2;PMS_P1;PMS_P2;Temp;Humidity;BMP_temperature;BMP_pressure;BME280_temperature;BME280_humidity;BME280_pressure;Samples;Min_cycle;Max_cycle;Signal;HPM_P1;HPM_P2
2022/01/06 00:00:30;;;;;;;10.30;2.53;;;;;;;0.13;100.00;100248.78;4976909;28;20054;-85
2022/01/06 00:03:34;;;;;;;3.15;2.85;;;;;;;0.07;100.00;100244.88;4976396;28;20050;-85
2022/01/06 00:06:40;;;;;;;2.83;2.10;;;;;;;0.03;100.00;100250.38;4976126;28;20419;-85
2022/01/06 00:09:47;;;;;;;1.98;1.83;;;;;;;-0.04;100.00;100253.91;4976476;28;20054;-85
2022/01/06 00:13:14;;;;;;;1.55;1.50;;;;;;;-0.05;100.00;100240.63;4975248;28;20058;-85
2022/01/06 00:16:33;;;;;;;4.55;2.95;;;;;;;-0.05;100.00;100241.41;4975971;28;20062;-85
2022/01/06 00:26:23;;;;;;;1.33;1.33;;;;;;;-0.19;100.00;100232.44;4976482;28;20061;-85
2022/01/06 00:29:27;;;;;;;15.50;3.22;;;;;;;-0.22;100.00;100228.53;4975002;28;20066;-84
2022/01/06 00:32:30;;;;;;;3.95;2.10;;;;;;;-0.21;100.00;100224.63;4973713;28;20417;-85
2022/01/06 00:35:34;;;;;;;26.48;2.58;;;;;;;-0.24;100.00;100230.88;4974786;28;20054;-84
2022/01/06 00:38:38;;;;;;;1.17;1.17;;;;;;;-0.22;100.00;100228.53;4974792;28;20050;-85
2022/01/06 00:41:41;;;;;;;4.18;3.30;;;;;;;-0.22;100.00;100225.78;4999266;28;20054;-84
2022/01/06 00:44:45;;;;;;;1.17;1.00;;;;;;;-0.18;100.00;100220.31;4974899;28;20062;-85
2022/01/06 00:47:48;;;;;;;4.25;2.75;;;;;;;-0.19;100.00;100208.59;4986042;28;20130;-84
2022/01/06 00:50:52;;;;;;;4.97;1.48;;;;;;;-0.20;100.00;100198.03;4974205;28;20074;-84
2022/01/06 00:53:56;;;;;;;9.10;4.28;;;;;;;-0.25;100.00;100195.69;4974017;28;20412;-84
2022/01/06 00:56:59;;;;;;;4.03;2.55;;;;;;;-0.28;100.00;100202.72;4974274;28;20054;-84
2022/01/06 01:00:03;;;;;;;2.83;2.63;;;;;;;-0.27;100.00;100192.56;4974127;28;20401;-84
2022/01/06 01:03:12;;;;;;;3.33;1.13;;;;;;;-0.32;100.00;100185.53;4990607;28;20173;-84
2022/01/06 01:06:15;;;;;;;0.88;0.88;;;;;;;-0.30;100.00;100182.41;4993964;28;20056;-84
2022/01/06 01:09:19;;;;;;;2.03;1.92;;;;;;;-0.35;100.00;100186.34;4993966;28;20509;-84
2022/01/06 01:12:25;;;;;;;4.55;1.70;;;;;;;-0.34;100.00;100171.47;4993765;28;20058;-85
2022/01/06 01:15:28;;;;;;;9.57;2.80;;;;;;;-0.32;100.00;100174.59;4993831;28;20499;-84
2022/01/06 01:18:32;;;;;;;1.00;1.00;;;;;;;-0.29;100.00;100170.31;4993478;28;20053;-84
2022/01/06 01:21:35;;;;;;;2.72;2.22;;;;;;;-0.33;100.00;100178.53;4992855;28;20531;-84
2022/01/06 01:24:39;;;;;;;1.55;1.45;;;;;;;-0.37;100.00;100183.22;4993021;28;20126;-84
2022/01/06 01:27:44;;;;;;;3.97;3.22;;;;;;;-0.37;100.00;100172.25;4992370;28;20480;-84
2022/01/06 01:31:02;;;;;;;1.15;1.15;;;;;;;-0.44;100.00;100160.56;4993018;28;20061;-84
2022/01/06 01:34:09;;;;;;;1.33;1.30;;;;;;;-0.47;100.00;100173.06;4973520;28;20077;-84
2022/01/06 01:37:12;;;;;;;2.20;1.45;;;;;;;-0.57;100.00;100162.94;4973332;28;20057;-84
2022/01/06 01:40:15;;;;;;;1.05;0.98;;;;;;;-0.59;100.00;100159.81;4984459;28;20511;-84
2022/01/06 01:43:19;;;;;;;3.17;2.22;;;;;;;-0.58;100.00;100161.38;4976200;28;20053;-83
2022/01/06 01:46:29;;;;;;;1.38;1.27;;;;;;;-0.59;100.00;100170.75;4973573;28;20057;-84
2022/01/06 01:49:46;;;;;;;1.65;1.60;;;;;;;-0.56;100.00;100169.94;4973318;28;20058;-84
2022/01/06 01:52:52;;;;;;;0.77;0.77;;;;;;;-0.50;100.00;100168.41;4986865;28;20049;-84
2022/01/06 01:55:56;;;;;;;14.75;2.63;;;;;;;-0.37;100.00;100172.25;4992919;28;20499;-83
2022/01/06 01:59:00;;;;;;;15.07;2.45;;;;;;;-0.34;100.00;100171.47;4992922;28;20046;-84
2022/01/06 02:02:04;;;;;;;14.20;2.55;;;;;;;-0.28;100.00;100164.44;4992576;28;20046;-84
2022/01/06 02:05:08;;;;;;;4.55;2.17;;;;;;;-0.24;100.00;100154.25;4992182;28;20058;-83
2022/01/06 02:08:12;;;;;;;15.52;2.17;;;;;;;-0.17;100.00;100161.66;4992091;28;20053;-83
2022/01/06 02:11:15;;;;;;;1.67;1.58;;;;;;;-0.10;100.00;100159.69;4992287;28;20042;-83
2022/01/06 02:14:18;;;;;;;10.48;2.95;;;;;;;0.05;100.00;100154.94;4992258;28;20401;-83
2022/01/06 02:17:22;;;;;;;1.20;1.17;;;;;;;0.17;100.00;100170.16;4992012;28;20607;-83
2022/01/06 02:20:25;;;;;;;1.65;1.58;;;;;;;0.24;100.00;100164.66;4992106;28;20053;-83
2022/01/06 02:23:30;;;;;;;9.63;2.45;;;;;;;0.37;100.00;100165.78;4990750;28;20057;-83
2022/01/06 02:26:33;;;;;;;6.72;2.90;;;;;;;0.46;100.00;100168.81;4992708;28;20412;-83
2022/01/06 02:29:37;;;;;;;2.15;1.77;;;;;;;0.54;100.00;100151.19;4992279;28;20150;-84
2022/01/06 02:32:41;;;;;;;6.50;3.25;;;;;;;0.61;100.00;100160.13;4996067;28;20049;-84
2022/01/06 02:35:45;;;;;;;2.17;1.98;;;;;;;0.66;100.00;100167.16;4992082;28;20057;-86
2022/01/06 02:38:48;;;;;;;1.08;0.88;;;;;;;0.59;100.00;100159.75;4991434;28;20049;-85
2022/01/06 02:41:51;;;;;;;1.98;1.88;;;;;;;0.65;100.00;100160.13;5002856;28;20507;-86
2022/01/06 02:44:54;;;;;;;1.88;1.77;;;;;;;0.73;100.00;100167.91;4991960;28;20420;-86
2022/01/06 02:48:00;;;;;;;2.60;1.65;;;;;;;0.83;100.00;100160.78;4992229;28;20058;-87
2022/01/06 02:51:04;;;;;;;1.40;1.15;;;;;;;0.88;100.00;100156.81;4992473;28;20069;-88
2022/01/06 02:54:09;;;;;;;1.50;1.27;;;;;;;0.96;100.00;100147.34;4992506;28;20057;-87
2022/01/06 02:57:12;;;;;;;6.30;2.67;;;;;;;1.02;100.00;100143.78;5003125;28;20065;-89
2022/01/06 03:00:17;;;;;;;6.85;2.10;;;;;;;0.98;100.00;100137.56;4992677;28;20054;-89
2022/01/06 03:03:21;;;;;;;2.72;2.38;;;;;;;1.01;100.00;100123.03;4991904;28;20062;-89
2022/01/06 03:06:24;;;;;;;5.05;2.85;;;;;;;1.04;100.00;100121.47;4992195;28;20408;-89
2022/01/06 03:09:37;;;;;;;12.65;1.25;;;;;;;1.01;100.00;100114.81;4991868;28;20057;-87
2022/01/06 03:12:41;;;;;;;2.78;2.38;;;;;;;1.06;100.00;100108.88;4980044;28;20504;-88
2022/01/06 03:15:44;;;;;;;3.58;1.63;;;;;;;1.08;100.00;100095.56;4983596;28;20131;-88
2022/01/06 03:18:48;;;;;;;2.50;1.80;;;;;;;1.15;100.00;100090.00;4983635;28;20054;-88
2022/01/06 03:21:52;;;;;;;1.08;0.98;;;;;;;1.18;100.00;100094.69;4983422;28;20061;-88
2022/01/06 03:24:55;;;;;;;4.10;2.10;;;;;;;1.15;100.00;100087.25;4983963;28;20073;-88
2022/01/06 03:27:59;;;;;;;8.07;1.73;;;;;;;1.23;100.00;100077.78;4983827;28;20053;-88
2022/01/06 03:31:02;;;;;;;4.22;1.60;;;;;;;1.31;100.00;100082.00;4983711;28;20057;-89
2022/01/06 03:34:08;;;;;;;5.35;3.30;;;;;;;1.34;100.00;100072.94;4983233;28;20053;-88
2022/01/06 03:37:13;;;;;;;3.85;2.80;;;;;;;1.40;100.00;100078.78;4972550;28;20070;-89
2022/01/06 03:40:16;;;;;;;3.28;2.05;;;;;;;1.36;100.00;100067.88;4994795;28;20053;-88
2022/01/06 03:43:20;;;;;;;33.53;1.98;;;;;;;1.39;100.00;100072.53;4992850;28;20062;-88
2022/01/06 03:46:23;;;;;;;5.88;1.45;;;;;;;1.37;100.00;100071.38;4991259;28;20061;-88
2022/01/06 03:49:26;;;;;;;3.53;1.98;;;;;;;1.43;100.00;100076.00;4991311;28;20053;-87
2022/01/06 03:52:30;;;;;;;4.03;2.65;;;;;;;1.40;100.00;100068.59;4990790;28;20057;-91
2022/01/06 03:55:34;;;;;;;1.42;1.13;;;;;;;1.41;100.00;100061.91;4991833;28;20053;-89
2022/01/06 03:58:39;;;;;;;1.25;1.17;;;;;;;1.41;100.00;100061.13;4991694;28;20069;-89
2022/01/06 04:01:43;;;;;;;1.15;1.13;;;;;;;1.41;100.00;100059.16;4991765;28;20123;-88
2022/01/06 04:04:47;;;;;;;1.13;1.13;;;;;;;1.38;100.00;100049.03;4991499;28;20130;-90
2022/01/06 04:07:50;;;;;;;1.95;1.35;;;;;;;1.42;100.00;100048.97;4991074;28;20400;-89
2022/01/06 04:10:54;;;;;;;1.17;1.08;;;;;;;1.40;100.00;100045.88;4991699;28;20065;-88
2022/01/06 04:13:58;;;;;;;3.22;1.75;;;;;;;1.42;100.00;100049.75;4972682;28;20496;-90
2022/01/06 04:17:06;;;;;;;8.05;1.80;;;;;;;1.44;100.00;100039.16;4971338;28;20508;-83
2022/01/06 04:20:12;;;;;;;3.45;1.92;;;;;;;1.46;100.00;100033.25;4971101;28;20045;-83
2022/01/06 04:23:15;;;;;;;1.05;1.05;;;;;;;1.42;100.00;100030.56;4989202;28;20405;-83
2022/01/06 04:26:19;;;;;;;0.93;0.93;;;;;;;1.41;100.00;100036.44;4989690;28;20126;-83
2022/01/06 04:29:22;;;;;;;3.53;2.13;;;;;;;1.34;100.00;100037.28;4990970;28;20066;-83
2022/01/06 04:32:26;;;;;;;0.60;0.45;;;;;;;1.40;100.00;100038.44;4993826;28;20053;-83
2022/01/06 04:35:29;;;;;;;0.68;0.57;;;;;;;1.50;100.00;100033.97;4993900;28;20057;-83
2022/01/06 04:38:33;;;;;;;1.27;0.98;;;;;;;1.59;100.00;100037.00;4993667;28;20069;-83
2022/01/06 04:41:37;;;;;;;0.90;0.90;;;;;;;1.61;100.00;100017.38;5001660;28;20049;-83
2022/01/06 04:44:40;;;;;;;3.30;1.60;;;;;;;1.64;100.00;100022.06;4973687;28;20054;-83
2022/01/06 04:47:43;;;;;;;1.23;1.17;;;;;;;1.67;100.00;100019.25;4974222;28;20057;-83
2022/01/06 04:50:47;;;;;;;1.63;1.42;;;;;;;1.74;100.00;100008.19;4974132;28;20058;-83
2022/01/06 04:53:50;;;;;;;0.75;0.75;;;;;;;1.85;100.00;100013.56;4973790;28;20074;-83
2022/01/06 04:56:53;;;;;;;2.17;2.05;;;;;;;1.94;100.00;100013.81;4974137;28;20413;-83
2022/01/06 04:59:57;;;;;;;12.05;1.85;;;;;;;1.95;100.00;99999.66;4973533;28;20069;-83
2022/01/06 05:03:00;;;;;;;2.00;1.17;;;;;;;2.00;100.00;99995.69;4988421;28;20057;-82
2022/01/06 05:06:03;;;;;;;2.13;1.42;;;;;;;2.04;100.00;100002.69;4993098;28;20409;-82
2022/01/06 05:09:07;;;;;;;1.52;1.10;;;;;;;2.07;100.00;100003.81;4993274;28;20542;-82
2022/01/06 05:12:10;;;;;;;2.13;0.95;;;;;;;2.12;100.00;100003.38;4993042;28;20061;-82
2022/01/06 05:15:14;;;;;;;1.92;1.83;;;;;;;2.15;100.00;100008.81;4993378;28;20053;-81
2022/01/06 05:18:18;;;;;;;3.25;1.30;;;;;;;2.18;100.00;99996.22;4993092;28;20057;-82
2022/01/06 05:21:21;;;;;;;6.03;2.05;;;;;;;2.22;100.00;99997.72;4992159;28;20054;-82
2022/01/06 05:24:24;;;;;;;0.88;0.88;;;;;;;2.24;100.00;99991.81;4992857;28;20046;-82
2022/01/06 05:27:28;;;;;;;1.20;0.60;;;;;;;2.27;100.00;99993.72;4992880;28;20049;-82
2022/01/06 05:30:31;;;;;;;1.13;1.13;;;;;;;2.32;100.00;99989.72;4992522;28;20400;-84
2022/01/06 05:33:35;;;;;;;5.40;1.60;;;;;;;2.36;100.00;99974.72;4992691;28;20401;-82
2022/01/06 05:36:39;;;;;;;1.25;1.25;;;;;;;2.39;100.00;99973.13;4992736;28;20057;-82
2022/01/06 05:39:42;;;;;;;2.03;0.82;;;;;;;2.36;100.00;99969.22;4993263;28;20057;-82
2022/01/06 05:42:48;;;;;;;2.45;1.00;;;;;;;2.28;100.00;99968.56;4985151;28;20602;-82
2022/01/06 05:45:54;;;;;;;2.28;1.50;;;;;;;2.27;100.00;99966.25;4973208;28;20525;-82
2022/01/06 05:48:58;;;;;;;1.80;1.70;;;;;;;2.28;100.00;99962.28;4973705;28;20053;-81
2022/01/06 05:52:01;;;;;;;1.55;0.70;;;;;;;2.25;100.00;99958.41;4980802;28;20049;-81
2022/01/06 05:55:05;;;;;;;1.02;0.52;;;;;;;2.28;100.00;99956.81;4992735;28;20057;-82
2022/01/06 05:58:08;;;;;;;1.63;1.52;;;;;;;2.27;100.00;99950.53;4991720;28;20535;-82
2022/01/06 06:01:12;;;;;;;0.32;0.30;;;;;;;2.21;100.00;99946.69;4992700;28;20408;-82
2022/01/06 06:04:15;;;;;;;0.30;0.30;;;;;;;2.15;100.00;99948.38;4991355;28;20058;-83
2022/01/06 06:07:19;;;;;;;2.83;1.85;;;;;;;2.28;100.00;99946.59;4992535;28;20057;-82
2022/01/06 06:10:23;;;;;;;23.48;2.55;;;;;;;2.32;100.00;99943.78;4992571;28;20062;-82
2022/01/06 06:13:26;;;;;;;1.05;1.00;;;;;;;2.43;100.00;99941.63;4991753;28;20500;-82
2022/01/06 06:16:30;;;;;;;1.23;0.95;;;;;;;2.47;100.00;99938.84;4993008;28;20053;-84
2022/01/06 06:19:33;;;;;;;0.73;0.73;;;;;;;2.46;100.00;99940.03;4992703;28;20053;-83
2022/01/06 06:22:37;;;;;;;0.93;0.93;;;;;;;2.55;100.00;99949.28;4997882;28;20073;-83
2022/01/06 06:25:40;;;;;;;1.52;1.42;;;;;;;2.58;100.00;99939.44;4992626;28;20491;-83
2022/01/06 06:28:44;;;;;;;2.15;1.17;;;;;;;2.61;100.00;99946.81;4992524;28;20073;-82
2022/01/06 06:31:47;;;;;;;7.43;1.70;;;;;;;2.68;100.00;99942.00;4991510;28;20052;-82
2022/01/06 06:34:52;;;;;;;1.30;0.65;;;;;;;2.72;100.00;99948.22;5001966;28;20408;-83
2022/01/06 06:37:56;;;;;;;17.35;1.80;;;;;;;2.73;100.00;99949.75;4984981;28;20066;-83
2022/01/06 06:40:59;;;;;;;0.93;0.93;;;;;;;2.70;100.00;99950.59;4989207;28;20520;-83
2022/01/06 06:44:03;;;;;;;3.83;1.63;;;;;;;2.71;100.00;99938.38;4983459;28;20045;-82
2022/01/06 06:47:06;;;;;;;4.38;1.20;;;;;;;2.73;100.00;99940.75;4984037;28;20061;-83
2022/01/06 06:50:12;;;;;;;7.68;1.15;;;;;;;2.78;100.00;99935.53;4986680;28;20061;-83
2022/01/06 06:53:16;;;;;;;1.20;0.80;;;;;;;2.81;100.00;99923.69;4989320;28;20053;-82
2022/01/06 06:56:19;;;;;;;1.73;1.63;;;;;;;2.85;100.00;99927.16;4991636;28;20057;-82
2022/01/06 06:59:22;;;;;;;9.95;2.53;;;;;;;2.85;100.00;99916.16;4991034;28;20077;-82
2022/01/06 07:02:26;;;;;;;1.08;1.08;;;;;;;2.91;100.00;99921.91;4982422;28;20118;-82
2022/01/06 07:05:29;;;;;;;8.50;1.23;;;;;;;2.90;100.00;99910.13;4991454;28;20061;-83
2022/01/06 07:08:32;;;;;;;4.43;1.13;;;;;;;2.93;100.00;99895.56;4991206;28;20078;-82
2022/01/06 07:11:36;;;;;;;1.27;0.80;;;;;;;2.98;100.00;99900.56;4990789;28;20412;-82
2022/01/06 07:14:40;;;;;;;0.57;0.57;;;;;;;3.01;100.00;99887.94;4976792;28;20508;-84
2022/01/06 07:17:43;;;;;;;0.85;0.80;;;;;;;2.97;100.00;99871.50;4991237;28;20053;-83
2022/01/06 07:20:46;;;;;;;3.60;1.25;;;;;;;2.89;100.00;99867.34;4977298;28;20516;-84
2022/01/06 07:23:52;;;;;;;1.33;1.02;;;;;;;2.80;100.00;99866.34;4990338;28;20053;-83
2022/01/06 07:26:55;;;;;;;1.00;0.93;;;;;;;2.71;100.00;99857.88;4978079;28;20061;-79
2022/01/06 07:29:58;;;;;;;3.83;0.60;;;;;;;2.68;100.00;99845.78;4989544;28;20061;-79
2022/01/06 07:33:01;;;;;;;1.02;0.63;;;;;;;2.63;100.00;99835.25;4990173;28;20049;-81
2022/01/06 07:36:05;;;;;;;15.35;1.92;;;;;;;2.60;100.00;99832.59;4991478;28;20069;-84
2022/01/06 07:39:09;;;;;;;1.90;1.80;;;;;;;2.53;100.00;99829.97;4979863;28;20097;-85
2022/01/06 07:42:13;;;;;;;3.63;1.13;;;;;;;2.48;100.00;99828.47;4987927;28;20053;-84
2022/01/06 07:45:17;;;;;;;1.50;0.28;;;;;;;2.42;100.00;99824.69;4979883;28;20065;-84
2022/01/06 07:48:26;;;;;;;0.98;0.98;;;;;;;2.40;100.00;99831.78;4990873;28;20058;-80
2022/01/06 07:51:31;;;;;;;3.35;1.00;;;;;;;2.39;100.00;99820.00;4991778;28;20053;-81
2022/01/06 07:54:34;;;;;;;8.93;1.35;;;;;;;2.36;100.00;99815.34;4989648;28;20050;-80
2022/01/06 07:57:37;;;;;;;0.50;0.50;;;;;;;2.22;100.00;99805.41;4990707;28;20069;-81
2022/01/06 08:00:41;;;;;;;0.98;0.90;;;;;;;2.12;100.00;99800.13;4990146;28;20077;-81
2022/01/06 08:03:44;;;;;;;1.75;0.98;;;;;;;2.12;100.00;99802.84;4991012;28;20057;-80
2022/01/06 08:06:48;;;;;;;2.88;1.08;;;;;;;2.09;100.00;99798.97;5010632;28;20515;-80
2022/01/06 08:09:51;;;;;;;1.10;0.75;;;;;;;2.10;100.00;99791.53;4994085;28;20057;-82
2022/01/06 08:12:55;;;;;;;0.85;0.75;;;;;;;2.12;100.00;99789.88;4988931;28;20400;-82
2022/01/06 08:15:58;;;;;;;1.50;0.65;;;;;;;2.21;100.00;99792.06;4993708;28;20049;-82
2022/01/06 08:19:01;;;;;;;1.40;0.80;;;;;;;2.32;100.00;99787.16;4994869;28;20053;-81
2022/01/06 08:22:05;;;;;;;3.38;2.20;;;;;;;2.43;100.00;99784.22;4993567;28;20053;-81
2022/01/06 08:25:10;;;;;;;0.73;0.60;;;;;;;2.53;100.00;99781.28;4984622;28;20053;-81
2022/01/06 08:28:13;;;;;;;1.48;1.27;;;;;;;2.59;100.00;99774.09;4993793;28;20073;-81
2022/01/06 08:31:17;;;;;;;1.67;0.60;;;;;;;2.73;100.00;99768.28;4993619;28;20045;-81
2022/01/06 08:34:21;;;;;;;1.85;1.02;;;;;;;2.79;100.00;99755.59;5004886;28;20065;-82
2022/01/06 08:37:25;;;;;;;8.50;1.50;;;;;;;2.77;100.00;99757.22;4994019;28;20053;-82
2022/01/06 08:40:28;;;;;;;3.85;2.15;;;;;;;2.77;100.00;99763.47;5000563;28;20503;-82
2022/01/06 08:43:32;;;;;;;2.70;1.42;;;;;;;2.77;100.00;99757.97;4981293;28;20042;-81
2022/01/06 08:46:35;;;;;;;1.88;1.35;;;;;;;2.76;100.00;99761.16;4992547;28;20408;-82
2022/01/06 08:49:41;;;;;;;0.57;0.40;;;;;;;2.76;100.00;99750.16;4994070;28;20061;-82
2022/01/06 08:52:45;;;;;;;4.13;0.75;;;;;;;2.83;100.00;99745.28;5005315;28;20045;-83
2022/01/06 08:55:49;;;;;;;2.17;1.13;;;;;;;2.84;100.00;99741.34;4992987;28;20062;-81
2022/01/06 08:58:53;;;;;;;3.60;0.88;;;;;;;2.84;100.00;99729.56;4992978;28;20073;-80
2022/01/06 09:01:57;;;;;;;3.00;1.23;;;;;;;2.90;100.00;99716.88;4992499;28;20061;-80
2022/01/06 09:05:02;;;;;;;5.18;1.55;;;;;;;2.93;100.00;99716.78;4992807;28;20050;-81
2022/01/06 09:08:07;;;;;;;1.02;1.02;;;;;;;2.98;100.00;99721.78;4993413;28;20416;-82
2022/01/06 09:11:11;;;;;;;2.47;1.33;;;;;;;3.06;100.00;99709.41;4992534;28;20049;-81
2022/01/06 09:14:14;;;;;;;1.27;1.02;;;;;;;3.11;100.00;99699.09;4993651;28;20400;-82
2022/01/06 09:17:18;;;;;;;6.68;1.60;;;;;;;3.11;100.00;99693.59;4992604;28;20057;-82
2022/01/06 09:20:22;;;;;;;4.47;1.92;;;;;;;3.16;100.00;99684.84;4993176;28;20073;-82
2022/01/06 09:23:26;;;;;;;1.50;0.63;;;;;;;3.17;100.00;99680.84;4992708;28;20057;-83
2022/01/06 09:26:29;;;;;;;1.30;0.68;;;;;;;3.18;100.00;99676.91;4993334;28;20077;-83
2022/01/06 09:29:33;;;;;;;3.22;1.23;;;;;;;3.22;100.00;99674.84;4993058;28;20405;-83
2022/01/06 09:32:37;;;;;;;1.48;0.80;;;;;;;3.27;100.00;99646.81;4993067;28;20057;-83
2022/01/06 09:35:40;;;;;;;0.35;0.35;;;;;;;3.30;100.00;99629.44;4994847;28;20515;-83
2022/01/06 09:38:46;;;;;;;0.55;0.55;;;;;;;3.34;100.00;99646.63;4992245;28;20508;-83
2022/01/06 09:41:49;;;;;;;0.82;0.82;;;;;;;3.35;100.00;99637.19;5002159;28;20428;-84
2022/01/06 09:44:53;;;;;;;0.77;0.77;;;;;;;3.38;100.00;99630.81;4992426;28;20057;-83
2022/01/06 09:47:57;;;;;;;6.03;1.45;;;;;;;3.43;100.00;99622.03;4991667;28;20073;-83
2022/01/06 09:51:00;;;;;;;2.45;0.55;;;;;;;3.45;100.00;99609.38;4992451;28;20058;-83
2022/01/06 09:54:04;;;;;;;0.50;0.50;;;;;;;3.51;100.00;99618.66;5003955;28;20126;-81
2022/01/06 09:57:08;;;;;;;2.90;1.15;;;;;;;3.56;100.00;99620.09;4993111;28;20511;-86
2022/01/06 10:00:13;;;;;;;1.20;0.77;;;;;;;3.48;100.00;99619.53;4993940;28;20508;-89
2022/01/06 10:03:16;;;;;;;1.60;1.02;;;;;;;3.49;100.00;99617.53;4992316;28;20053;-85
2022/01/06 10:06:22;;;;;;;1.67;1.35;;;;;;;3.56;100.00;99614.59;4993670;28;20057;-87
2022/01/06 10:09:26;;;;;;;0.40;0.40;;;;;;;3.62;100.00;99604.59;4992845;28;20118;-86
2022/01/06 10:12:30;;;;;;;0.63;0.63;;;;;;;3.65;100.00;99598.22;4992690;28;20057;-86
2022/01/06 10:15:36;;;;;;;2.72;0.63;;;;;;;3.68;100.00;99595.38;5008004;28;20408;-87
2022/01/06 10:18:40;;;;;;;0.43;0.43;;;;;;;3.73;100.00;99591.31;4992986;28;20057;-86
2022/01/06 10:21:48;;;;;;;0.30;0.30;;;;;;;3.76;100.00;99584.94;4997194;28;20049;-87
2022/01/06 10:24:54;;;;;;;0.80;0.80;;;;;;;3.68;100.00;99594.63;5006967;28;20064;-86
2022/01/06 10:27:57;;;;;;;1.55;1.30;;;;;;;3.74;100.00;99584.63;4980790;28;20408;-86
2022/01/06 10:31:05;;;;;;;1.05;0.55;;;;;;;3.88;100.00;99580.69;5008668;28;20061;-87
2022/01/06 10:34:09;;;;;;;8.25;0.98;;;;;;;4.01;100.00;99582.25;4992198;28;20073;-87
2022/01/06 10:37:27;;;;;;;4.03;0.47;;;;;;;4.04;100.00;99564.84;5003776;28;20049;-88
2022/01/06 10:40:31;;;;;;;1.05;0.85;;;;;;;4.00;100.00;99560.66;5005229;28;20053;-88
2022/01/06 10:43:34;;;;;;;2.63;1.10;;;;;;;3.96;100.00;99549.75;4977084;28;20053;-88
2022/01/06 10:46:41;;;;;;;0.52;0.50;;;;;;;4.06;100.00;99547.88;5005154;28;20060;-89
2022/01/06 10:49:44;;;;;;;0.82;0.25;;;;;;;4.08;100.00;99537.97;4992046;28;20412;-89
2022/01/06 10:52:56;;;;;;;1.08;0.95;;;;;;;4.04;100.00;99533.78;4991277;28;20057;-88
2022/01/06 10:56:01;;;;;;;1.30;0.90;;;;;;;4.02;100.00;99530.69;4992139;28;20057;-85
2022/01/06 10:59:04;;;;;;;6.78;1.27;;;;;;;4.03;100.00;99524.72;4991382;28;20515;-88
2022/01/06 11:02:08;;;;;;;5.35;0.85;;;;;;;4.08;100.00;99534.44;4991461;28;20054;-86
2022/01/06 11:05:11;;;;;;;4.47;0.70;;;;;;;4.10;100.00;99527.28;4992218;28;20061;-88
2022/01/06 11:08:18;;;;;;;1.00;0.73;;;;;;;4.20;100.00;99515.16;4992257;28;20150;-88
2022/01/06 11:11:32;;;;;;;3.95;1.40;;;;;;;4.30;100.00;99511.31;4992033;28;20057;-85
2022/01/06 11:14:38;;;;;;;2.38;1.52;;;;;;;4.37;100.00;99502.03;4991021;28;20057;-89
2022/01/06 11:17:47;;;;;;;0.35;0.35;;;;;;;4.48;100.00;99489.44;4992013;28;20057;-86
2022/01/06 11:20:51;;;;;;;0.43;0.43;;;;;;;4.55;100.00;99483.72;4992965;28;20420;-84
2022/01/06 11:24:02;;;;;;;6.32;0.90;;;;;;;4.63;100.00;99478.75;4976798;28;20056;-83
2022/01/06 11:27:08;;;;;;;11.85;0.43;;;;;;;4.64;100.00;99466.47;4990608;28;20077;-84
2022/01/06 11:30:15;;;;;;;1.85;0.90;;;;;;;4.72;100.00;99467.03;4978124;28;20058;-85
2022/01/06 11:33:19;;;;;;;1.80;0.98;;;;;;;4.73;100.00;99468.56;4991325;28;20057;-87
2022/01/06 11:36:29;;;;;;;1.13;0.75;;;;;;;4.63;100.00;99476.72;4990806;28;20404;-84
2022/01/06 11:39:32;;;;;;;0.85;0.85;;;;;;;4.54;100.00;99473.13;4993061;28;20057;-84
2022/01/06 11:42:36;;;;;;;8.75;0.90;;;;;;;4.50;100.00;99473.22;4988260;28;20049;-82
2022/01/06 11:45:39;;;;;;;0.43;0.40;;;;;;;4.45;100.00;99470.28;4994562;28;20049;-81
2022/01/06 11:48:52;;;;;;;0.50;0.30;;;;;;;4.58;100.00;99463.53;4995454;28;20062;-84
2022/01/06 11:52:07;;;;;;;0.50;0.50;;;;;;;4.60;100.00;99450.06;4995464;28;20061;-87
2022/01/06 11:55:15;;;;;;;0.30;0.30;;;;;;;4.63;100.00;99442.13;4994253;28;20065;-83
2022/01/06 11:58:22;;;;;;;12.50;1.90;;;;;;;4.59;100.00;99437.47;4994931;28;20049;-81
2022/01/06 12:01:26;;;;;;;0.28;0.28;;;;;;;4.59;100.00;99442.25;4995192;28;20049;-84
2022/01/06 12:04:30;;;;;;;0.68;0.63;;;;;;;4.65;100.00;99437.69;4982402;28;20041;-78
2022/01/06 12:07:33;;;;;;;0.63;0.63;;;;;;;4.68;100.00;99433.28;4994876;28;20488;-78
2022/01/06 12:10:45;;;;;;;0.30;0.30;;;;;;;4.73;100.00;99429.94;4994905;28;20069;-77
2022/01/06 12:13:50;;;;;;;;;;;;;;;4.82;100.00;99405.19;4992756;28;20057;-76
2022/01/06 12:17:08;;;;;;;0.30;0.30;;;;;;;4.81;100.00;99398.16;4994449;28;20379;-79
2022/01/06 12:20:24;;;;;;;2.83;0.60;;;;;;;4.79;100.00;99384.00;4993735;28;20049;-78
2022/01/06 12:23:29;;;;;;;0.47;0.47;;;;;;;4.76;100.00;99374.66;4994623;28;20118;-80
2022/01/06 12:26:34;;;;;;;0.40;0.40;;;;;;;4.75;100.00;99361.31;4995099;28;20432;-82
2022/01/06 12:29:38;;;;;;;0.85;0.70;;;;;;;4.80;100.00;99346.94;4994475;28;20065;-82
2022/01/06 12:32:41;;;;;;;2.30;0.82;;;;;;;4.86;100.00;99339.63;4986487;28;20424;-82
2022/01/06 12:35:51;;;;;;;0.80;0.80;;;;;;;4.81;100.00;99320.91;4994060;28;20045;-81
2022/01/06 12:38:55;;;;;;;0.30;0.30;;;;;;;4.79;100.00;99320.56;4994447;28;20053;-81
2022/01/06 12:42:03;;;;;;;0.35;0.35;;;;;;;4.79;100.00;99312.31;4995887;28;20049;-79
2022/01/06 12:45:07;;;;;;;0.43;0.35;;;;;;;4.82;100.00;99297.63;4993423;28;20069;-79
2022/01/06 12:48:13;;;;;;;0.50;0.50;;;;;;;4.85;100.00;99302.25;4993701;28;20053;-79
2022/01/06 12:51:28;;;;;;;0.85;0.22;;;;;;;4.84;100.00;99292.41;4992617;28;20049;-80
2022/01/06 12:54:42;;;;;;;5.05;1.50;;;;;;;4.86;100.00;99273.44;4978257;28;20495;-80
2022/01/06 12:57:51;;;;;;;2.85;0.63;;;;;;;4.85;100.00;99260.88;4992850;28;20053;-80
2022/01/06 13:00:56;;;;;;;1.10;0.70;;;;;;;4.79;100.00;99246.09;4992067;28;20053;-80
2022/01/06 13:04:00;;;;;;;5.25;1.20;;;;;;;4.80;100.00;99231.09;4993632;28;20062;-81
2022/01/06 13:07:06;;;;;;;2.13;0.98;;;;;;;4.93;100.00;99213.25;4993020;28;20077;-78
2022/01/06 13:10:09;;;;;;;1.10;0.65;;;;;;;5.03;100.00;99200.25;4993373;28;20057;-79
2022/01/06 13:13:13;;;;;;;0.40;0.40;;;;;;;5.00;100.00;99209.44;4993162;28;20081;-77
2022/01/06 13:16:21;;;;;;;1.10;0.30;;;;;;;4.93;100.00;99187.66;4992263;28;20057;-78
2022/01/06 13:19:26;;;;;;;0.30;0.30;;;;;;;5.12;100.00;99176.22;4993726;28;20057;-78
2022/01/06 13:26:02;;;;;;;1.85;0.50;;;;;;;5.10;100.00;99153.06;4993835;28;20057;-77
2022/01/06 13:29:08;;;;;;;0.30;0.30;;;;;;;5.11;100.00;99138.06;4993061;28;20109;-78
2022/01/06 13:32:21;;;;;;;0.28;0.10;;;;;;;5.30;100.00;99128.59;4992131;28;20057;-78
2022/01/06 13:35:24;;;;;;;0.57;0.50;;;;;;;5.35;100.00;99122.44;4992914;28;20054;-78
2022/01/06 13:38:36;;;;;;;2.75;0.90;;;;;;;5.10;100.00;99114.44;4992502;28;20057;-88
2022/01/06 13:41:46;;;;;;;0.52;0.52;;;;;;;5.35;100.00;99120.44;4997914;28;20061;-85
2022/01/06 13:44:53;;;;;;;0.45;0.40;;;;;;;5.37;100.00;99101.44;4978835;28;20050;-80
2022/01/06 13:48:01;;;;;;;3.30;1.27;;;;;;;5.33;100.00;99092.53;4990370;28;20065;-82
2022/01/06 13:51:28;;;;;;;3.03;1.23;;;;;;;5.44;100.00;99085.78;4980255;28;20435;-83
2022/01/06 13:54:32;;;;;;;0.20;0.20;;;;;;;5.52;100.00;99082.28;4991645;28;20053;-79
2022/01/06 13:57:35;;;;;;;1.25;0.55;;;;;;;5.55;100.00;99075.84;4991556;28;20519;-83
2022/01/06 14:00:39;;;;;;;2.95;0.55;;;;;;;5.54;100.00;99071.56;5007396;28;20053;-81
2022/01/06 14:03:43;;;;;;;4.68;0.50;;;;;;;5.58;100.00;99069.41;4983153;28;20066;-87
2022/01/06 14:06:48;;;;;;;3.03;0.40;;;;;;;5.56;100.00;99058.03;4974950;28;20061;-81
2022/01/06 14:09:51;;;;;;;0.38;0.38;;;;;;;5.68;100.00;99062.63;4991854;28;20049;-81
2022/01/06 14:12:57;;;;;;;0.85;0.68;;;;;;;5.74;100.00;99060.78;4992247;28;20053;-83
2022/01/06 14:16:01;;;;;;;1.52;1.15;;;;;;;5.79;100.00;99051.09;4992720;28;20057;-86
2022/01/06 14:19:04;;;;;;;0.40;0.30;;;;;;;6.07;100.00;99049.84;4994242;28;20053;-88
2022/01/06 14:22:08;;;;;;;0.68;0.32;;;;;;;6.18;100.00;99043.84;4991794;28;20073;-77
2022/01/06 14:28:07;;;;;;;1.05;0.68;;;;;;;6.38;100.00;99035.78;4932577;29;20524;-76
2022/01/06 14:31:10;;;;;;;4.38;2.08;;;;;;;6.32;100.00;99026.59;4920470;29;20074;-76
2022/01/06 14:34:14;;;;;;;0.98;0.90;;;;;;;6.26;100.00;99011.88;4922198;29;20510;-76
2022/01/06 14:37:18;;;;;;;2.70;1.55;;;;;;;6.28;100.00;99026.00;4922263;29;20050;-75